Latest Weather Observations for Blackwater Airport

IDQ60801

Issued at 11:02 pm EST Monday 25 May 2015 (issued every 30 minutes, with the page automatically refreshed every 10 minutes)

About weather observations | Map of weather stations | Latest weather observations for QLD | Other Formats
Station Details ID: 035134 Name: BLACKWATER AIRPORT Lat: -23.60 Lon: 148.81 Height: 192.95 m
Data from the previous 72 hours. | See also: Recent months at Blackwater Airport
Date/Time
EST
Temp
°C
App
Temp
°C
Dew
Point
Rel
Hum
%
Delta-T
°C
Wind Press
QNH
hPa
Press
MSL
hPa
Rain
since 9 am
mm
Dir
 
Spd
km/h
Gust
km/h
Spd
kts
Gust
kts
25/11:00pm 18.2 15.7 12.4 69 3.2 E 17 26 9 14 1026.6 1026.0 0.0
25/10:30pm 18.7 15.7 12.7 68 3.4 ENE 20 28 11 15 1026.6 1026.0 0.0
25/10:00pm 17.1 15.3 12.2 73 2.7 E 13 17 7 9 1026.7 1026.1 0.0
25/09:30pm 16.2 15.2 10.9 71 2.8 ESE 7 9 4 5 1026.8 1026.3 0.0
25/09:00pm 17.8 16.7 12.0 69 3.2 ESE 9 13 5 7 1026.7 1026.1 0.0
25/08:30pm 16.6 14.9 11.3 71 2.9 SSE 11 11 6 6 1026.8 1026.3 0.0
25/08:00pm 17.6 16.7 11.4 67 3.4 SSE 7 9 4 5 1026.6 1026.0 0.0
25/07:30pm 18.6 17.9 11.9 65 3.7 SE 7 7 4 4 1026.3 1025.7 0.0
25/07:00pm 19.1 18.6 12.1 64 3.9 ESE 6 7 3 4 1026.1 1025.5 0.0
25/06:30pm 19.3 18.2 11.8 62 4.2 E 9 9 5 5 1025.6 1025.0 0.0
25/06:00pm 20.4 19.3 12.1 59 4.7 E 9 11 5 6 1025.3 1024.7 0.0
25/05:30pm 21.3 19.6 12.4 57 5.1 E 13 17 7 9 1025.2 1024.6 0.0
25/05:00pm 21.8 20.0 12.1 54 5.5 E 13 19 7 10 1025.2 1024.6 0.0
25/04:30pm 22.0 19.5 12.3 54 5.5 E 17 24 9 13 1025.2 1024.6 0.0
25/04:00pm 22.1 19.1 11.8 52 5.8 E 19 24 10 13 1025.1 1024.5 0.0
25/03:30pm 22.5 20.5 11.6 50 6.2 ENE 13 22 7 12 1024.8 1024.3 0.0
25/03:00pm 22.7 20.1 12.0 50 6.1 ENE 17 24 9 13 1025.0 1024.4 0.0
25/02:30pm 22.2 20.4 12.2 53 5.7 ENE 13 19 7 10 1025.2 1024.6 0.0
25/02:00pm 22.7 19.4 12.9 54 5.6 NE 22 30 12 16 1025.4 1024.8 0.0
25/01:30pm 22.1 19.3 12.6 55 5.4 E 19 28 10 15 1025.8 1025.2 0.0
25/01:00pm 22.0 19.2 12.5 54 5.4 E 19 28 10 15 1026.4 1025.8 0.0
25/12:30pm 22.3 19.9 12.5 53 5.6 E 17 24 9 13 1026.7 1026.1 0.0
25/12:00pm 22.3 20.0 13.1 56 5.3 ESE 17 24 9 13 1027.3 1026.8 0.0
25/11:30am 21.7 18.9 13.3 59 4.9 ESE 20 28 11 15 1027.8 1027.3 0.0
25/11:00am 21.4 18.5 12.8 58 4.9 E 20 32 11 17 1027.9 1027.4 0.0
25/10:30am 21.4 17.7 12.8 58 4.9 E 24 33 13 18 1028.0 1027.5 0.0
25/10:00am 22.0 18.4 13.1 57 5.1 E 24 33 13 18 1028.2 1027.7 0.0
25/09:30am 21.4 18.1 12.8 58 4.9 E 22 32 12 17 1028.6 1028.1 0.0
25/09:00am 21.2 17.0 12.3 57 5.0 E 26 35 14 19 1028.6 1028.1 0.0
25/08:30am 20.4 17.0 12.6 61 4.4 E 22 33 12 18 1028.2 1027.7 0.0
25/08:00am 20.3 17.4 13.0 63 4.2 ESE 20 35 11 19 1027.7 1027.2 0.0
25/07:30am 17.8 16.1 12.5 71 3.0 E 13 19 7 10 1027.7 1027.2 0.0
25/07:00am 17.3 14.8 12.2 72 2.8 ESE 17 24 9 13 1027.5 1027.0 0.0
25/06:30am 15.6 13.6 11.6 77 2.2 ESE 13 17 7 9 1027.0 1026.5 0.0
25/06:00am 15.7 12.9 11.3 75 2.4 E 17 22 9 12 1026.6 1026.0 0.0
25/05:30am 15.8 13.4 11.4 75 2.4 ESE 15 22 8 12 1026.7 1026.1 0.0
25/05:00am 15.6 12.8 11.4 76 2.3 E 17 22 9 12 1026.0 1025.4 0.0
25/04:30am 14.6 12.6 10.2 75 2.3 ESE 11 15 6 8 1025.9 1025.3 0.0
25/04:00am 14.5 12.9 10.3 76 2.2 SE 9 13 5 7 1026.1 1025.5 0.0
25/03:30am 14.8 12.9 10.6 76 2.2 ESE 11 15 6 8 1026.3 1025.7 0.0
25/03:00am 15.3 13.0 10.5 73 2.5 ESE 13 19 7 10 1026.5 1025.9 0.0
25/02:30am 15.3 12.7 10.7 74 2.5 E 15 20 8 11 1026.4 1025.8 0.0
25/02:00am 14.4 12.7 9.8 74 2.4 ESE 9 15 5 8 1026.4 1025.8 0.0
25/01:30am 14.5 12.5 10.1 75 2.3 E 11 13 6 7 1026.6 1026.0 0.0
25/01:00am 14.7 12.7 10.3 75 2.3 E 11 13 6 7 1026.8 1026.3 0.0
25/12:30am 15.6 13.3 10.6 72 2.7 E 13 15 7 8 1026.8 1026.3 0.0
25/12:00am 16.4 14.2 10.7 69 3.0 ESE 13 19 7 10 1027.1 1026.6 0.0
 
Date/Time
EST
Temp
°C
App
Temp
°C
Dew
Point
Rel
Hum
%
Delta-T
°C
Wind Press
QNH
hPa
Press
MSL
hPa
Rain
since 9 am
mm
Dir
 
Spd
km/h
Gust
km/h
Spd
kts
Gust
kts
24/11:30pm 16.3 14.0 10.6 69 3.1 E 13 17 7 9 1027.2 1026.7 0.0
24/11:00pm 16.3 13.6 10.4 68 3.1 E 15 19 8 10 1027.2 1026.7 0.0
24/10:30pm 16.7 14.3 10.1 65 3.5 E 13 17 7 9 1027.0 1026.5 0.0
24/10:00pm 17.1 14.5 9.5 61 4.0 E 13 17 7 9 1026.6 1026.0 0.0
24/09:30pm 17.3 14.6 9.0 58 4.3 E 13 17 7 9 1026.5 1025.9 0.0
24/09:00pm 17.6 14.8 8.7 56 4.6 E 13 17 7 9 1026.3 1025.7 0.0
24/08:30pm 17.6 14.8 8.7 56 4.6 E 13 17 7 9 1026.2 1025.6 0.0
24/08:00pm 18.0 15.6 8.8 55 4.8 E 11 15 6 8 1026.1 1025.5 0.0
24/07:30pm 17.7 15.4 9.1 57 4.5 ENE 11 13 6 7 1026.1 1025.5 0.0
24/07:00pm 18.5 16.1 8.7 53 5.1 E 11 11 6 6 1025.7 1025.1 0.0
24/06:30pm 20.4 17.3 9.0 48 6.1 ESE 15 17 8 9 1024.8 1024.3 0.0
24/06:00pm 21.1 18.5 9.4 47 6.3 ESE 13 15 7 8 1024.5 1024.0 0.0
24/05:30pm 22.3 19.6 9.1 43 7.1 ESE 13 19 7 10 1024.4 1023.9 0.0
24/05:00pm 23.2 19.7 8.9 40 7.7 E 17 22 9 12 1024.0 1023.5 0.0
24/04:30pm 24.0 19.8 8.4 37 8.4 E 20 30 11 16 1023.8 1023.3 0.0
24/04:00pm 24.6 20.1 8.5 36 8.7 E 22 30 12 16 1023.6 1023.1 0.0
24/03:30pm 24.9 20.8 8.8 36 8.8 E 20 32 11 17 1023.4 1022.9 0.0
24/03:00pm 24.7 20.2 8.6 36 8.7 E 22 32 12 17 1023.3 1022.8 0.0
24/02:30pm 24.9 20.5 8.8 36 8.8 E 22 35 12 19 1023.4 1022.9 0.0
24/02:00pm 25.1 20.3 9.0 36 8.8 E 24 35 13 19 1023.5 1023.0 0.0
24/01:30pm 24.4 19.6 8.8 37 8.5 ENE 24 37 13 20 1023.5 1023.0 0.0
24/01:00pm 24.9 20.2 9.2 37 8.6 ENE 24 35 13 19 1023.8 1023.3 0.0
24/12:30pm 25.0 20.2 8.9 36 8.8 E 24 33 13 18 1024.3 1023.8 0.0
24/12:00pm 24.5 20.5 8.9 37 8.5 E 20 32 11 17 1025.0 1024.4 0.0
24/11:30am 23.3 17.6 8.2 38 8.1 ENE 28 39 15 21 1025.4 1024.8 0.0
24/11:00am 22.6 17.5 7.6 38 7.8 E 24 35 13 19 1025.6 1025.0 0.0
24/10:30am 22.6 16.8 8.0 39 7.7 E 28 39 15 21 1025.8 1025.2 0.0
24/10:00am 22.9 18.5 9.0 41 7.5 E 22 39 12 21 1026.0 1025.4 0.0
24/09:52am 22.4 18.9 8.9 42 7.3 E 17 39 9 21 1025.8 1025.2 0.0
24/09:30am 21.1 18.9 7.7 42 7.0 SE 9 15 5 8 1026.1 1025.5 0.0
24/09:00am 19.6 16.6 7.7 46 6.1 SSE 13 19 7 10 1025.9 1025.3 0.0
24/08:30am 18.6 15.3 8.0 50 5.5 SSE 15 20 8 11 1025.8 1025.2 0.0
24/08:00am 17.0 13.7 8.2 56 4.5 SSE 15 19 8 10 1025.3 1024.7 0.0
24/07:30am 15.7 12.8 8.0 60 3.9 SSE 13 17 7 9 1025.2 1024.6 0.0
24/07:00am 14.3 11.0 8.0 66 3.2 SSE 15 19 8 10 1025.0 1024.4 0.0
24/06:30am 13.8 10.4 7.8 67 3.0 SSE 15 19 8 10 1024.5 1024.0 0.0
24/06:00am 13.6 10.7 8.0 69 2.8 SSE 13 17 7 9 1024.2 1023.7 0.0
24/05:30am 13.2 9.9 8.1 71 2.6 S 15 19 8 10 1023.9 1023.4 0.0
24/05:00am 12.5 9.0 7.0 69 2.7 SSE 15 17 8 9 1023.6 1023.1 0.0
24/04:30am 13.3 9.4 7.1 66 3.0 SSE 17 19 9 10 1023.5 1023.0 0.0
24/04:00am 14.2 9.9 7.7 65 3.2 SSE 20 22 11 12 1023.3 1022.8 0.0
24/03:30am 14.4 10.6 7.7 64 3.4 SSE 17 20 9 11 1023.5 1023.0 0.0
24/03:00am 14.6 11.0 8.5 67 3.1 SSE 17 19 9 10 1023.4 1022.9 0.0
24/02:30am 14.4 11.2 8.6 68 3.0 SSE 15 19 8 10 1023.4 1022.9 0.0
24/02:00am 14.6 11.8 8.5 67 3.1 SSE 13 17 7 9 1023.5 1023.0 0.0
24/01:30am 15.4 12.2 8.4 63 3.6 SSE 15 17 8 9 1023.4 1022.9 0.0
24/01:00am 16.5 13.7 8.5 59 4.1 SE 13 19 7 10 1023.1 1022.6 0.0
24/12:30am 17.4 14.3 8.8 57 4.5 SE 15 19 8 10 1023.1 1022.6 0.0
24/12:00am 16.5 13.3 8.5 59 4.1 SSE 15 19 8 10 1023.1 1022.6 0.0
 
Date/Time
EST
Temp
°C
App
Temp
°C
Dew
Point
Rel
Hum
%
Delta-T
°C
Wind Press
QNH
hPa
Press
MSL
hPa
Rain
since 9 am
mm
Dir
 
Spd
km/h
Gust
km/h
Spd
kts
Gust
kts
23/11:30pm 16.5 13.7 8.7 60 4.0 SSE 13 15 7 8 1023.3 1022.8 0.0
23/11:00pm 16.6 13.5 8.8 60 4.0 SSE 15 17 8 9 1023.4 1022.9 0.0
23/10:30pm 17.0 13.9 8.9 59 4.2 SSE 15 19 8 10 1023.3 1022.8 0.0
23/10:00pm 17.0 13.6 9.2 60 4.1 SSE 17 20 9 11 1023.2 1022.7 0.0
23/09:30pm 15.6 12.9 9.1 65 3.4 SSE 13 15 7 8 1023.4 1022.9 0.0
23/09:00pm 16.4 13.0 9.1 62 3.8 SSE 17 19 9 10 1023.2 1022.7 0.0
23/08:30pm 16.4 13.0 9.1 62 3.8 SSE 17 19 9 10 1023.0 1022.5 0.0
23/08:00pm 16.5 14.6 9.2 62 3.8 SSE 9 13 5 7 1023.0 1022.5 0.0
23/07:30pm 15.8 13.3 8.3 61 3.8 SSE 11 13 6 7 1022.9 1022.4 0.0
23/07:00pm 16.8 14.4 8.8 59 4.1 SE 11 13 6 7 1022.6 1022.1 0.0
23/06:30pm 17.6 15.6 8.5 55 4.7 SE 9 13 5 7 1022.3 1021.8 0.0
23/06:00pm 18.8 16.4 8.7 52 5.3 ESE 11 15 6 8 1021.9 1021.3 0.0
23/05:30pm 19.9 16.1 8.9 49 5.8 E 19 24 10 13 1021.8 1021.2 0.0
23/05:00pm 21.1 16.7 9.0 46 6.5 E 22 30 12 16 1021.4 1020.8 0.0
23/04:30pm 22.2 18.3 8.7 42 7.2 E 19 28 10 15 1021.2 1020.6 0.0
23/04:00pm 22.6 19.0 8.3 40 7.6 E 17 24 9 13 1021.0 1020.4 0.0
23/03:30pm 23.0 18.9 8.7 40 7.7 E 20 30 11 16 1021.0 1020.4 0.0
23/03:00pm 22.7 18.9 7.7 38 7.9 E 17 28 9 15 1020.7 1020.1 0.0
23/02:30pm 23.5 19.3 8.4 38 8.1 E 20 30 11 16 1020.7 1020.1 0.0
23/02:00pm 23.0 18.7 7.9 38 8.0 E 20 28 11 15 1020.8 1020.2 0.0
23/01:30pm 23.1 18.9 8.4 39 7.9 E 20 32 11 17 1021.1 1020.5 0.0
23/01:00pm 23.3 18.8 8.6 39 7.9 E 22 35 12 19 1021.3 1020.7 0.0
23/12:30pm 23.0 18.2 8.7 40 7.7 E 24 32 13 17 1021.9 1021.3 0.0
23/12:00pm 22.4 18.6 8.9 42 7.2 ESE 19 28 10 15 1022.2 1021.6 0.0
23/11:30am 21.1 17.0 8.7 45 6.6 SE 20 30 11 16 1022.6 1022.1 0.0
23/11:00am 20.8 16.4 8.8 46 6.4 SE 22 39 12 21 1023.1 1022.6 0.0
23/10:30am 19.9 15.7 7.6 45 6.4 SSE 19 28 10 15 1023.5 1023.0 0.0
23/10:00am 19.5 14.1 8.2 48 5.9 SSE 26 35 14 19 1023.7 1023.2 0.0
23/09:30am 17.8 12.1 8.4 54 4.9 S 28 37 15 20 1023.6 1023.1 0.0
23/09:00am 16.3 10.1 8.0 58 4.2 SSE 30 39 16 21 1023.5 1023.0 0.0
23/08:30am 15.6 9.9 8.4 62 3.7 S 28 35 15 19 1023.1 1022.6 0.0
23/08:00am 14.1 9.1 7.9 66 3.1 S 24 33 13 18 1023.0 1022.5 0.0
23/07:30am 11.8 7.4 7.3 74 2.2 SSW 20 24 11 13 1023.1 1022.6 0.0
23/07:00am 9.7 5.4 7.1 84 1.2 SSW 19 22 10 12 1022.7 1022.2 0.0
23/06:30am 8.5 4.0 6.1 85 1.1 SW 19 20 10 11 1022.3 1021.8 0.0
23/06:00am 10.2 6.5 6.5 78 1.7 S 15 19 8 10 1022.0 1021.4 0.0
23/05:30am 9.7 5.7 6.6 81 1.5 S 17 22 9 12 1021.7 1021.1 0.0
23/05:00am 8.4 5.0 5.9 84 1.1 SSW 13 15 7 8 1021.5 1020.9 0.0
23/04:30am 8.4 4.7 4.6 77 1.7 SSW 13 19 7 10 1021.5 1020.9 0.0
23/04:00am 11.1 6.6 6.0 71 2.4 S 19 26 10 14 1021.3 1020.7 0.0
23/03:30am 11.4 6.7 6.1 70 2.5 S 20 26 11 14 1021.4 1020.8 0.0
23/03:00am 11.5 7.0 6.0 69 2.6 S 19 28 10 15 1021.8 1021.2 0.0
23/02:30am 10.7 7.3 5.7 71 2.3 S 13 20 7 11 1022.1 1021.5 0.0
23/02:00am 11.3 8.6 5.8 69 2.6 S 9 13 5 7 1022.2 1021.6 0.0
23/01:30am 10.5 6.3 5.5 71 2.3 S 17 22 9 12 1022.1 1021.5 0.0
23/01:00am 9.3 5.3 5.1 75 1.9 SSW 15 17 8 9 1022.7 1022.2 0.0
23/12:30am 10.0 5.6 5.0 71 2.3 SSW 17 20 9 11 1022.8 1022.3 0.0
23/12:00am 10.0 5.2 4.8 70 2.3 SSW 19 20 10 11 1023.0 1022.5 0.0
 
Date/Time
EST
Temp
°C
App
Temp
°C
Dew
Point
Rel
Hum
%
Delta-T
°C
Wind Press
QNH
hPa
Press
MSL
hPa
Rain
since 9 am
mm
Dir
 
Spd
km/h
Gust
km/h
Spd
kts
Gust
kts
22/11:30pm 11.9 7.5 4.9 62 3.2 S 17 22 9 12 1023.3 1022.8 0.0

Other Formats:

Comma delimited format used in spreadsheet applications
http://www.bom.gov.au/fwo/IDQ60801/IDQ60801.94398.axf

JavaScript Object Notation format (JSON) in row-major order
http://www.bom.gov.au/fwo/IDQ60801/IDQ60801.94398.json